Terminal Aerodrome Forecast
Issued by NWS

Home | Current Version | Previous Version | Text Only | Print | Product List | Glossary On
Versions: 1 2 3 4 5 6 7 8 9 10 11 12 13 14 15 16 17
555
FTUS43 KAPX 011720
TAFTVC
TAF
KTVC 011720Z 0118/0218 02011G21KT 1/2SM SHSN OVC005
     FM012200 34011G27KT 3SM -SHSN OVC015
     FM020200 33012G28KT P6SM VCSH OVC040
     FM020600 33008KT P6SM BKN030
     FM021400 31008KT P6SM BKN035=

USA.gov is the U.S. government's official web portal to all federal, state and local government web resources and services.